Impacts METAR Board INFO
IDs:

KMSP - Minneapolis-St Paul, MN, US

Updated at: 1245 UTC 20 Jan 2018
Potential Impact None Slight Moderate High
Time20/00Z 20/01Z 20/02Z 20/03Z 20/04Z 20/05Z 20/06Z 20/07Z 20/08Z 20/09Z 20/10Z 20/11Z 20/12Z
VIS10 10 10 10 10 10 10 10 10 10 10 10 10
CIG250 250 210 210 210 210 240 250 250 250 250 250 170
CoverBKNBKNBKNBKNBKNBKNBKNBKNBKNBKNBKNBKNBKN
FltCatVFRVFRVFRVFRVFRVFRVFRVFRVFRVFRVFRVFRVFR
WX--------------------------
WDir27023020028027021025001902301900240
WSpd5 5 3 5 3 4 3 0 3 5 3 0 3
WGst-- -- -- -- -- -- -- -- -- -- -- -- --
Raw hourly METARs
KMSP 192353Z 27005KT 10SM BKN250 04/00 A2958 RMK AO2 SLP022 4/001 T00440000 10067 20033 53028
KMSP 200053Z 23005KT 10SM BKN250 03/00 A2959 RMK AO2 SLP029 T00330000
KMSP 200153Z 20003KT 10SM BKN210 03/01 A2960 RMK AO2 SLP031 T00330006
KMSP 200253Z 28005KT 10SM BKN210 04/00 A2964 RMK AO2 SLP045 T00390000 53022
KMSP 200353Z 27003KT 10SM BKN210 03/00 A2966 RMK AO2 SLP052 T00330000
KMSP 200453Z 21004KT 10SM BKN210 02/M01 A2968 RMK AO2 SLP059 T00221006
KMSP 200553Z 25003KT 10SM BKN240 02/M01 A2971 RMK AO2 SLP069 4/001 T00171006 10044 20011 400671028 53024
KMSP 200653Z 00000KT 10SM BKN250 M01/M02 A2974 RMK AO2 SLP079 T10061022
KMSP 200753Z 19003KT 10SM BKN250 M01/M02 A2976 RMK AO2 SLP084 T10061022
KMSP 200853Z 23005KT 10SM BKN250 M01/M02 A2978 RMK AO2 SLP091 T10111017 51021
KMSP 200953Z 19003KT 10SM SCT150 BKN250 M02/M02 A2977 RMK AO2 SLP089 T10171022
KMSP 201053Z 00000KT 10SM BKN250 M04/M04 A2980 RMK AO2 SLP100 I1000 T10441044
KMSP 201153Z 24003KT 10SM BKN170 M02/M02 A2982 RMK AO2 SLP106 4/001 I1000 I6000 T10171022 10017 21044 53014